createdAt,value
2019-04-06T00:00:13.275Z,6.47
2019-04-06T00:02:42.516Z,5.37
2019-04-06T00:05:12.525Z,6.40
2019-04-06T00:07:41.718Z,6.07
2019-04-06T00:10:11.423Z,6.23
2019-04-06T00:12:40.651Z,7.60
2019-04-06T00:15:09.928Z,5.30
2019-04-06T00:17:39.213Z,6.33
2019-04-06T00:20:08.729Z,7.17
2019-04-06T00:22:38.162Z,6.30
2019-04-06T00:25:08.417Z,4.27
2019-04-06T00:27:37.540Z,4.73
2019-04-06T00:30:08.575Z,5.67
2019-04-06T00:32:42.168Z,6.10
2019-04-06T00:35:11.427Z,4.37
2019-04-06T00:37:40.607Z,6.60
2019-04-06T00:40:10.463Z,5.60
2019-04-06T00:42:39.718Z,6.93
2019-04-06T00:45:09.486Z,6.73
2019-04-06T00:47:38.714Z,7.97
2019-04-06T00:50:08.009Z,7.23
2019-04-06T00:52:37.093Z,6.13
2019-04-06T00:55:07.107Z,7.63
2019-04-06T00:57:36.310Z,6.30
2019-04-06T01:00:10.170Z,5.90
2019-04-06T01:02:39.603Z,5.80
2019-04-06T01:05:09.152Z,6.63
2019-04-06T01:07:38.343Z,4.00
2019-04-06T01:10:08.170Z,4.80
2019-04-06T01:12:37.373Z,6.07
2019-04-06T01:15:07.133Z,6.17
2019-04-06T01:17:36.377Z,6.13
2019-04-06T01:20:06.287Z,6.00
2019-04-06T01:22:35.499Z,5.93
2019-04-06T01:25:07.250Z,5.27
2019-04-06T01:27:37.327Z,5.00
2019-04-06T01:30:08.365Z,5.83
2019-04-06T01:32:37.530Z,5.37
2019-04-06T01:35:07.084Z,7.37
2019-04-06T01:37:36.243Z,8.73
2019-04-06T01:40:07.050Z,5.97
2019-04-06T01:42:36.167Z,7.07
2019-04-06T01:45:06.665Z,6.27
2019-04-06T01:47:35.907Z,6.03
2019-04-06T01:50:05.706Z,6.00
2019-04-06T01:52:34.835Z,5.30
2019-04-06T01:55:04.767Z,5.83
2019-04-06T01:57:33.827Z,5.17
2019-04-06T02:00:03.148Z,5.33
2019-04-06T02:02:36.418Z,5.20
2019-04-06T02:05:07.002Z,4.97
2019-04-06T02:07:36.234Z,6.07
2019-04-06T02:10:07.256Z,4.80
2019-04-06T02:12:36.400Z,4.33
2019-04-06T02:15:06.815Z,6.73
2019-04-06T02:17:36.118Z,6.93
2019-04-06T02:20:06.112Z,4.80
2019-04-06T02:22:35.294Z,4.83
2019-04-06T02:25:06.401Z,5.97
2019-04-06T02:27:35.676Z,4.97
2019-04-06T02:30:11.494Z,5.37
2019-04-06T02:32:58.491Z,5.10
2019-04-06T02:35:35.323Z,5.77
2019-04-06T02:38:12.136Z,5.27
2019-04-06T02:40:42.914Z,6.33
2019-04-06T02:43:13.633Z,4.43
2019-04-06T02:45:42.864Z,5.23
2019-04-06T02:48:12.056Z,7.40
2019-04-06T02:50:41.241Z,7.00
2019-04-06T02:53:10.327Z,5.27
2019-04-06T02:55:39.499Z,6.43
2019-04-06T02:58:08.841Z,6.97
2019-04-06T03:00:38.054Z,6.37
2019-04-06T03:03:07.336Z,6.40
2019-04-06T03:05:36.466Z,9.40
2019-04-06T03:08:05.700Z,6.10
2019-04-06T03:10:34.990Z,8.33
2019-04-06T03:13:04.157Z,7.67
2019-04-06T03:15:33.388Z,7.90
2019-04-06T03:18:02.517Z,7.67
2019-04-06T03:20:31.855Z,7.70
2019-04-06T03:23:01.240Z,7.10
2019-04-06T03:25:30.369Z,8.90
2019-04-06T03:27:59.556Z,9.00
2019-04-06T03:30:29.023Z,7.97
2019-04-06T03:32:59.213Z,9.13
2019-04-06T03:35:28.587Z,9.50
2019-04-06T03:37:57.979Z,10.13
2019-04-06T03:40:27.180Z,9.40
2019-04-06T03:42:56.363Z,11.40
2019-04-06T03:45:25.595Z,9.67
2019-04-06T03:47:54.765Z,12.00
2019-04-06T03:50:24.061Z,13.13
2019-04-06T03:52:53.315Z,15.87
2019-04-06T03:55:22.603Z,14.97
2019-04-06T03:57:51.844Z,19.00
2019-04-06T04:00:21.075Z,13.80
2019-04-06T04:02:50.274Z,14.20
2019-04-06T04:05:21.805Z,18.33
2019-04-06T04:07:50.977Z,16.17
2019-04-06T04:10:38.189Z,16.53
2019-04-06T04:13:07.364Z,15.27
2019-04-06T04:15:36.658Z,17.73
2019-04-06T04:18:06.185Z,18.17
2019-04-06T04:20:35.459Z,16.40
2019-04-06T04:23:04.659Z,18.33
2019-04-06T04:25:33.870Z,15.97
2019-04-06T04:28:02.975Z,14.83
2019-04-06T04:30:34.030Z,15.80
2019-04-06T04:33:03.100Z,15.40
2019-04-06T04:35:32.435Z,16.53
2019-04-06T04:38:01.783Z,17.90
2019-04-06T04:40:31.133Z,24.13
2019-04-06T04:43:00.348Z,28.13
2019-04-06T04:45:29.545Z,19.73
2019-04-06T04:47:58.733Z,24.43
2019-04-06T04:50:28.062Z,20.70
2019-04-06T04:52:57.485Z,23.57
2019-04-06T04:55:26.623Z,22.70
2019-04-06T04:57:55.802Z,24.63
2019-04-06T05:00:24.952Z,19.50
2019-04-06T05:02:54.085Z,21.33
2019-04-06T05:05:23.389Z,25.90
2019-04-06T05:07:52.526Z,21.90
2019-04-06T05:10:21.964Z,25.67
2019-04-06T05:12:51.167Z,25.13
2019-04-06T05:15:32.197Z,20.73
2019-04-06T05:18:01.367Z,22.23
2019-04-06T05:20:30.580Z,23.93
2019-04-06T05:23:04.573Z,23.47
2019-04-06T05:25:33.775Z,27.80
2019-04-06T05:28:03.050Z,26.80
2019-04-06T05:30:32.109Z,23.87
2019-04-06T05:33:01.509Z,23.90
2019-04-06T05:35:30.783Z,29.83
2019-04-06T05:38:00.065Z,19.27
2019-04-06T05:40:29.479Z,22.27
2019-04-06T05:43:00.857Z,24.20
2019-04-06T05:45:30.011Z,21.40
2019-04-06T05:47:59.114Z,25.83
2019-04-06T05:50:28.577Z,20.50
2019-04-06T05:52:57.862Z,20.90
2019-04-06T05:55:27.245Z,20.13
2019-04-06T05:58:03.698Z,24.73
2019-04-06T06:00:27.149Z,22.90
2019-04-06T06:02:56.317Z,22.50
2019-04-06T06:05:25.529Z,28.17
2019-04-06T06:07:54.739Z,27.17
2019-04-06T06:10:23.969Z,24.93
2019-04-06T06:12:53.063Z,26.20
2019-04-06T06:15:22.190Z,24.67
2019-04-06T06:17:51.424Z,18.83
2019-04-06T06:20:20.649Z,19.30
2019-04-06T06:22:49.738Z,23.77
2019-04-06T06:25:18.980Z,21.47
2019-04-06T06:27:48.248Z,20.57
2019-04-06T06:30:18.032Z,22.63
2019-04-06T06:32:47.179Z,22.73
2019-04-06T06:35:16.577Z,23.03
2019-04-06T06:37:45.909Z,21.77
2019-04-06T06:40:15.379Z,19.83
2019-04-06T06:42:44.595Z,18.40
2019-04-06T06:45:14.319Z,20.37
2019-04-06T06:47:43.538Z,23.77
2019-04-06T06:50:13.186Z,21.77
2019-04-06T06:52:42.388Z,20.47
2019-04-06T06:55:11.657Z,23.03
2019-04-06T06:57:40.871Z,21.63
2019-04-06T07:00:10.441Z,24.17
2019-04-06T07:02:39.717Z,20.53
2019-04-06T07:05:09.143Z,21.30
2019-04-06T07:07:38.382Z,17.83
2019-04-06T07:10:08.244Z,19.20
2019-04-06T07:12:37.529Z,19.57
2019-04-06T07:15:07.730Z,19.20
2019-04-06T07:17:36.863Z,20.70
2019-04-06T07:20:08.276Z,23.10
2019-04-06T07:22:39.187Z,18.40
2019-04-06T07:25:08.692Z,16.53
2019-04-06T07:27:38.033Z,18.20
2019-04-06T07:30:08.197Z,20.17
2019-04-06T07:32:37.407Z,18.30
2019-04-06T07:35:07.709Z,19.20
2019-04-06T07:37:39.736Z,18.33
2019-04-06T07:40:12.208Z,19.77
2019-04-06T07:42:43.694Z,17.97
2019-04-06T07:45:13.444Z,17.93
2019-04-06T07:47:44.631Z,19.10
2019-04-06T07:50:15.893Z,19.80
2019-04-06T07:52:45.361Z,18.77
2019-04-06T07:55:17.930Z,18.07
2019-04-06T07:57:47.566Z,17.03
2019-04-06T08:00:19.307Z,16.80
2019-04-06T08:02:48.466Z,17.40
2019-04-06T08:05:19.393Z,18.37
2019-04-06T08:07:48.692Z,18.17
2019-04-06T08:10:18.524Z,17.87
2019-04-06T08:12:47.888Z,18.03
2019-04-06T08:15:17.196Z,16.70
2019-04-06T08:17:47.973Z,19.20
2019-04-06T08:20:20.324Z,17.13
2019-04-06T08:22:49.652Z,17.87
2019-04-06T08:25:18.939Z,16.50
2019-04-06T08:27:48.140Z,18.47
2019-04-06T08:30:17.507Z,19.30
2019-04-06T08:32:47.101Z,17.90
2019-04-06T08:35:25.422Z,17.10
2019-04-06T08:37:47.339Z,18.57
2019-04-06T08:40:16.792Z,21.70
2019-04-06T08:42:46.377Z,19.07
2019-04-06T08:45:15.764Z,21.97
2019-04-06T08:47:45.003Z,16.50
2019-04-06T08:50:15.419Z,18.00
2019-04-06T08:52:44.711Z,17.70
2019-04-06T08:55:14.234Z,15.90
2019-04-06T08:57:43.659Z,18.37
2019-04-06T09:00:13.383Z,15.97
2019-04-06T09:02:42.822Z,16.77
2019-04-06T09:05:13.122Z,16.30
2019-04-06T09:07:43.055Z,15.77
2019-04-06T09:10:13.009Z,18.17
2019-04-06T09:12:42.399Z,16.93
2019-04-06T09:15:15.899Z,16.90
2019-04-06T09:17:50.887Z,18.00
2019-04-06T09:20:23.319Z,15.03
2019-04-06T09:22:53.041Z,15.50
2019-04-06T09:25:22.543Z,17.53
2019-04-06T09:27:53.073Z,17.20
2019-04-06T09:30:22.522Z,15.70
2019-04-06T09:32:52.083Z,15.23
2019-04-06T09:35:21.353Z,22.70
2019-04-06T09:37:50.880Z,17.23
2019-04-06T09:40:20.364Z,15.57
2019-04-06T09:42:50.333Z,18.03
2019-04-06T09:45:37.395Z,19.23
2019-04-06T09:48:08.782Z,15.47
2019-04-06T09:50:42.447Z,17.00
2019-04-06T09:53:21.231Z,18.50
2019-04-06T09:55:52.152Z,16.57
2019-04-06T09:58:22.869Z,16.00
2019-04-06T10:00:56.704Z,18.53
2019-04-06T10:03:44.181Z,14.07
2019-04-06T10:06:15.400Z,14.87
2019-04-06T10:08:49.193Z,14.60
2019-04-06T10:11:25.976Z,14.00
2019-04-06T10:14:12.972Z,14.53
2019-04-06T10:17:03.337Z,13.57
2019-04-06T10:19:42.939Z,14.83
2019-04-06T10:22:29.718Z,15.20
2019-04-06T10:25:11.005Z,14.00
2019-04-06T10:27:53.760Z,13.63
2019-04-06T10:30:30.592Z,13.97
2019-04-06T10:33:13.878Z,13.37
2019-04-06T10:35:59.967Z,13.10
2019-04-06T10:38:53.404Z,14.60
2019-04-06T10:41:40.440Z,14.07
2019-04-06T10:44:20.544Z,12.27
2019-04-06T10:46:51.693Z,12.30
2019-04-06T10:49:22.870Z,12.10
2019-04-06T10:52:09.982Z,14.73
2019-04-06T10:54:43.453Z,12.90
2019-04-06T10:57:14.395Z,12.27
2019-04-06T11:00:03.556Z,12.00
2019-04-06T11:02:34.367Z,13.10
2019-04-06T11:05:06.320Z,12.63
2019-04-06T11:07:43.006Z,12.37
2019-04-06T11:10:30.663Z,13.93
2019-04-06T11:13:04.049Z,13.17
2019-04-06T11:15:45.272Z,12.43
2019-04-06T11:18:31.337Z,12.00
2019-04-06T11:21:02.223Z,13.57
2019-04-06T11:23:35.571Z,13.93
2019-04-06T11:26:12.888Z,13.83
2019-04-06T11:28:54.219Z,12.07
2019-04-06T11:31:41.867Z,13.63
2019-04-06T11:34:15.476Z,12.70
2019-04-06T11:37:02.286Z,13.20
2019-04-06T11:39:36.015Z,12.17
2019-04-06T11:42:18.639Z,12.90
2019-04-06T11:44:58.660Z,13.07
2019-04-06T11:47:45.742Z,14.50
2019-04-06T11:50:19.911Z,11.40
2019-04-06T11:52:53.666Z,12.30
2019-04-06T11:55:32.231Z,12.83
2019-04-06T11:58:19.440Z,12.57
2019-04-06T12:01:08.431Z,12.20
2019-04-06T12:03:39.301Z,12.43
2019-04-06T12:06:25.487Z,12.17
2019-04-06T12:08:56.366Z,13.57
2019-04-06T12:11:43.277Z,12.80
2019-04-06T12:14:19.830Z,13.13
2019-04-06T12:16:56.539Z,14.50
2019-04-06T12:19:27.487Z,13.60
2019-04-06T12:22:14.850Z,12.80
2019-04-06T12:24:48.443Z,13.87
2019-04-06T12:27:35.529Z,14.67
2019-04-06T12:30:11.343Z,12.70
2019-04-06T12:32:57.220Z,12.23
2019-04-06T12:35:44.045Z,14.23
2019-04-06T12:38:20.664Z,13.87
2019-04-06T12:40:57.830Z,15.33
2019-04-06T12:43:45.375Z,15.03
2019-04-06T12:46:19.104Z,15.63
2019-04-06T12:48:55.694Z,15.47
2019-04-06T12:51:32.339Z,15.63
2019-04-06T12:54:03.431Z,14.53
2019-04-06T12:56:50.404Z,17.03
2019-04-06T12:59:27.852Z,17.43
2019-04-06T13:02:08.165Z,14.20
2019-04-06T13:04:55.692Z,15.73
2019-04-06T13:07:45.535Z,15.83
2019-04-06T13:10:16.729Z,18.30
2019-04-06T13:12:47.509Z,14.80
2019-04-06T13:15:24.790Z,15.27
2019-04-06T13:17:58.536Z,18.00
2019-04-06T13:20:32.415Z,14.07
2019-04-06T13:23:15.428Z,19.57
2019-04-06T13:25:46.351Z,17.40
2019-04-06T13:28:19.966Z,13.93
2019-04-06T13:31:01.418Z,17.37
2019-04-06T13:33:26.258Z,21.10
2019-04-06T13:36:06.169Z,17.63
2019-04-06T13:38:52.166Z,15.90
2019-04-06T13:41:31.951Z,18.07
2019-04-06T13:44:04.968Z,14.30
2019-04-06T13:46:51.813Z,16.13
2019-04-06T13:49:38.743Z,14.00
2019-04-06T13:52:25.901Z,16.93
2019-04-06T13:55:02.326Z,14.93
2019-04-06T13:57:35.703Z,18.20
2019-04-06T14:00:11.228Z,15.20
2019-04-06T14:02:53.864Z,15.73
2019-04-06T14:05:39.370Z,15.30
2019-04-06T14:08:19.254Z,17.10
2019-04-06T14:11:04.953Z,16.33
2019-04-06T14:13:38.736Z,14.10
2019-04-06T14:16:27.926Z,15.10
2019-04-06T14:19:07.761Z,16.07
2019-04-06T14:21:41.469Z,17.70
2019-04-06T14:24:26.306Z,18.20
2019-04-06T14:27:09.253Z,16.67
2019-04-06T14:29:40.038Z,19.83
2019-04-06T14:32:28.983Z,15.03
2019-04-06T14:35:00.473Z,17.13
2019-04-06T14:37:34.760Z,18.57
2019-04-06T14:40:24.338Z,15.73
2019-04-06T14:43:06.629Z,16.90
2019-04-06T14:45:40.508Z,17.77
2019-04-06T14:48:27.812Z,20.50
2019-04-06T14:51:04.780Z,17.73
2019-04-06T14:53:42.753Z,18.83
2019-04-06T14:56:26.588Z,16.20
2019-04-06T14:59:01.540Z,17.37
2019-04-06T15:01:57.949Z,18.27
2019-04-06T15:04:21.678Z,18.50
2019-04-06T15:07:12.173Z,17.30
2019-04-06T15:09:41.111Z,16.37
2019-04-06T15:12:14.851Z,15.20
2019-04-06T15:15:02.047Z,14.50
2019-04-06T15:17:39.098Z,16.67
2019-04-06T15:20:25.421Z,15.90
2019-04-06T15:23:08.257Z,18.40
2019-04-06T15:25:42.304Z,15.93
2019-04-06T15:28:28.822Z,15.23
2019-04-06T15:31:08.352Z,16.60
2019-04-06T15:33:39.249Z,19.20
2019-04-06T15:36:10.614Z,17.20
2019-04-06T15:38:57.702Z,16.67
2019-04-06T15:41:34.318Z,14.80
2019-04-06T15:44:08.006Z,18.47
2019-04-06T15:46:53.979Z,17.17
2019-04-06T15:49:27.580Z,18.90
2019-04-06T15:52:10.748Z,18.97
2019-04-06T15:54:36.787Z,19.17
2019-04-06T15:57:07.642Z,16.90
2019-04-06T15:59:47.836Z,17.53
2019-04-06T16:02:21.364Z,21.13
2019-04-06T16:04:52.412Z,22.87
2019-04-06T16:07:41.730Z,17.73
2019-04-06T16:10:29.025Z,16.60
2019-04-06T16:13:02.539Z,18.70
2019-04-06T16:15:36.395Z,16.87
2019-04-06T16:18:07.253Z,18.60
2019-04-06T16:20:48.316Z,18.23
2019-04-06T16:23:34.385Z,17.60
2019-04-06T16:26:08.448Z,19.07
2019-04-06T16:28:55.557Z,22.63
2019-04-06T16:31:29.711Z,18.93
2019-04-06T16:34:15.774Z,24.13
2019-04-06T16:36:53.488Z,18.37
2019-04-06T16:39:33.636Z,19.07
2019-04-06T16:42:14.634Z,19.80
2019-04-06T16:44:55.616Z,20.07
2019-04-06T16:47:47.334Z,19.03
2019-04-06T16:50:25.285Z,19.40
2019-04-06T16:53:06.660Z,22.87
2019-04-06T16:55:44.635Z,18.70
2019-04-06T16:58:27.372Z,22.77
2019-04-06T17:01:02.667Z,22.90
2019-04-06T17:03:37.971Z,22.53
2019-04-06T17:06:28.608Z,19.40
2019-04-06T17:09:12.970Z,20.40
2019-04-06T17:11:47.979Z,21.70
2019-04-06T17:14:41.237Z,23.57
2019-04-06T17:17:17.011Z,27.33
2019-04-06T17:20:04.678Z,22.20
2019-04-06T17:22:55.468Z,23.77
2019-04-06T17:25:41.471Z,28.00
2019-04-06T17:28:16.036Z,29.13
2019-04-06T17:31:06.116Z,27.07
2019-04-06T17:33:43.660Z,26.97
2019-04-06T17:36:15.822Z,26.40
2019-04-06T17:38:52.630Z,26.83
2019-04-06T17:41:34.144Z,24.97
2019-04-06T17:44:12.683Z,25.27
2019-04-06T17:46:49.631Z,27.13
2019-04-06T17:49:38.646Z,24.27
2019-04-06T17:52:18.219Z,23.47
2019-04-06T17:54:51.991Z,21.00
2019-04-06T17:57:41.264Z,25.83
2019-04-06T18:00:16.563Z,24.97
2019-04-06T18:02:56.333Z,24.60
2019-04-06T18:05:44.965Z,26.60
2019-04-06T18:08:18.984Z,24.33
2019-04-06T18:10:50.663Z,27.23
2019-04-06T18:13:33.404Z,23.10
2019-04-06T18:16:02.618Z,25.10
2019-04-06T18:18:31.831Z,25.23
2019-04-06T18:21:01.098Z,26.10
2019-04-06T18:23:30.307Z,27.73
2019-04-06T18:26:01.634Z,27.20
2019-04-06T18:28:30.897Z,22.67
2019-04-06T18:31:04.663Z,22.77
2019-04-06T18:33:34.142Z,25.70
2019-04-06T18:36:03.410Z,26.57
2019-04-06T18:38:34.324Z,27.83
2019-04-06T18:41:03.867Z,27.93
2019-04-06T18:43:33.068Z,28.73
2019-04-06T18:46:02.443Z,26.43
2019-04-06T18:48:31.680Z,25.13
2019-04-06T18:51:01.114Z,25.27
2019-04-06T18:53:33.365Z,24.97
2019-04-06T18:56:02.924Z,27.83
2019-04-06T18:58:32.080Z,28.63
2019-04-06T19:01:01.478Z,29.67
2019-04-06T19:03:31.260Z,30.10
2019-04-06T19:06:00.711Z,24.07
2019-04-06T19:08:29.846Z,26.87
2019-04-06T19:10:59.036Z,28.67
2019-04-06T19:13:28.618Z,25.50
2019-04-06T19:15:58.410Z,32.30
2019-04-06T19:18:27.734Z,26.00
2019-04-06T19:20:56.936Z,26.03
2019-04-06T19:23:26.188Z,31.67
2019-04-06T19:25:55.412Z,25.33
2019-04-06T19:28:24.861Z,26.27
2019-04-06T19:30:54.074Z,27.13
2019-04-06T19:33:25.582Z,28.53
2019-04-06T19:35:54.073Z,26.17
2019-04-06T19:38:23.397Z,25.63
2019-04-06T19:40:54.186Z,25.43
2019-04-06T19:43:25.235Z,24.67
2019-04-06T19:45:54.410Z,25.33
2019-04-06T19:48:23.562Z,25.30
2019-04-06T19:50:53.246Z,27.77
2019-04-06T19:53:22.539Z,23.60
2019-04-06T19:55:53.101Z,25.93
2019-04-06T19:58:22.711Z,24.93
2019-04-06T20:00:51.983Z,25.87
2019-04-06T20:03:21.423Z,23.33
2019-04-06T20:05:50.633Z,24.63
2019-04-06T20:08:19.778Z,22.07
2019-04-06T20:10:49.556Z,26.07
2019-04-06T20:13:18.867Z,22.47
2019-04-06T20:15:49.091Z,24.70
2019-04-06T20:18:18.472Z,23.77
2019-04-06T20:20:47.935Z,26.60
2019-04-06T20:23:17.031Z,22.73
2019-04-06T20:25:46.383Z,23.70
2019-04-06T20:28:15.972Z,23.63
2019-04-06T20:30:45.270Z,23.73
2019-04-06T20:33:14.504Z,20.70
2019-04-06T20:35:44.025Z,21.80
2019-04-06T20:38:13.373Z,21.77
2019-04-06T20:40:42.813Z,22.07
2019-04-06T20:43:12.065Z,25.20
2019-04-06T20:45:41.346Z,24.13
2019-04-06T20:48:10.542Z,26.33
2019-04-06T20:50:39.893Z,21.40
2019-04-06T20:53:09.129Z,22.77
2019-04-06T20:55:38.764Z,24.13
2019-04-06T20:58:08.342Z,20.80
2019-04-06T21:00:37.966Z,20.17
2019-04-06T21:03:07.440Z,24.13
2019-04-06T21:05:37.134Z,22.87
2019-04-06T21:08:06.399Z,24.87
2019-04-06T21:10:36.214Z,22.17
2019-04-06T21:13:06.613Z,20.43
2019-04-06T21:15:36.133Z,20.30
2019-04-06T21:18:05.429Z,19.70
2019-04-06T21:20:34.760Z,21.03
2019-04-06T21:23:10.685Z,20.83
2019-04-06T21:25:40.233Z,20.90
2019-04-06T21:28:10.029Z,21.77
2019-04-06T21:30:39.327Z,24.57
2019-04-06T21:33:08.841Z,22.63
2019-04-06T21:35:38.193Z,24.13
2019-04-06T21:38:07.792Z,23.23
2019-04-06T21:40:37.307Z,20.37
2019-04-06T21:43:06.892Z,23.20
2019-04-06T21:45:36.658Z,26.03
2019-04-06T21:48:06.059Z,21.00
2019-04-06T21:50:35.322Z,20.70
2019-04-06T21:53:04.558Z,20.97
2019-04-06T21:55:33.916Z,23.40
2019-04-06T21:58:03.387Z,21.97
2019-04-06T22:00:53.532Z,20.37
2019-04-06T22:03:23.404Z,21.50
2019-04-06T22:05:53.256Z,22.23
2019-04-06T22:08:23.179Z,20.53
2019-04-06T22:10:54.181Z,20.97
2019-04-06T22:13:23.614Z,21.30
2019-04-06T22:15:52.826Z,22.67
2019-04-06T22:18:22.164Z,23.07
2019-04-06T22:20:51.583Z,19.63
2019-04-06T22:23:20.861Z,19.37
2019-04-06T22:25:51.797Z,19.40
2019-04-06T22:28:24.512Z,18.57
2019-04-06T22:30:55.500Z,23.13
2019-04-06T22:33:25.112Z,18.47
2019-04-06T22:35:58.560Z,25.13
2019-04-06T22:38:28.999Z,20.27
2019-04-06T22:40:58.162Z,22.40
2019-04-06T22:43:27.545Z,21.03
2019-04-06T22:45:56.871Z,22.23
2019-04-06T22:48:26.598Z,22.53
2019-04-06T22:50:57.838Z,19.80
2019-04-06T22:53:28.241Z,19.77
2019-04-06T22:55:58.588Z,19.90
2019-04-06T22:58:28.877Z,20.50
2019-04-06T23:01:05.314Z,21.07
2019-04-06T23:03:41.244Z,18.83
2019-04-06T23:06:12.957Z,20.43
2019-04-06T23:08:44.745Z,17.90
2019-04-06T23:11:14.139Z,18.10
2019-04-06T23:13:43.775Z,22.63
2019-04-06T23:16:13.767Z,19.37
2019-04-06T23:18:43.185Z,18.73
2019-04-06T23:21:12.447Z,18.17
2019-04-06T23:23:41.887Z,20.10
2019-04-06T23:26:11.219Z,19.27
2019-04-06T23:28:40.391Z,20.47
2019-04-06T23:31:09.838Z,19.03
2019-04-06T23:33:39.625Z,18.97
2019-04-06T23:36:09.202Z,20.17
2019-04-06T23:38:38.635Z,20.77
2019-04-06T23:41:07.838Z,19.37
2019-04-06T23:43:37.029Z,18.57
2019-04-06T23:46:06.404Z,18.03
2019-04-06T23:48:36.373Z,17.83
2019-04-06T23:51:06.297Z,19.33
2019-04-06T23:53:36.035Z,20.47
2019-04-06T23:56:07.109Z,18.13
2019-04-06T23:58:36.379Z,16.90
